createdAt,value
2022-10-05T00:01:00.993Z,9.15
2022-10-05T00:03:36.863Z,9.90
2022-10-05T00:06:03.671Z,10.20
2022-10-05T00:08:34.092Z,8.82
2022-10-05T00:11:01.063Z,7.70
2022-10-05T00:13:30.126Z,7.05
2022-10-05T00:16:05.059Z,6.28
2022-10-05T00:18:32.709Z,6.72
2022-10-05T00:20:59.953Z,8.13
2022-10-05T00:23:32.364Z,7.80
2022-10-05T00:26:11.789Z,6.32
2022-10-05T00:28:40.146Z,8.18
2022-10-05T00:31:15.247Z,8.68
2022-10-05T00:33:41.896Z,7.70
2022-10-05T00:36:08.767Z,8.35
2022-10-05T00:38:35.424Z,8.80
2022-10-05T00:41:25.877Z,9.20
2022-10-05T00:44:05.946Z,7.95
2022-10-05T00:46:56.655Z,8.27
2022-10-05T00:49:38.437Z,9.43
2022-10-05T00:52:29.086Z,9.10
2022-10-05T00:55:10.099Z,6.80
2022-10-05T00:57:36.698Z,6.13
2022-10-05T01:00:14.486Z,7.82
2022-10-05T01:03:04.433Z,9.80
2022-10-05T01:05:40.369Z,8.93
2022-10-05T01:08:37.176Z,7.65
2022-10-05T01:11:29.864Z,6.13
2022-10-05T01:14:03.039Z,5.85
2022-10-05T01:16:41.545Z,5.65
2022-10-05T01:19:26.056Z,8.07
2022-10-05T01:22:00.772Z,7.18
2022-10-05T01:25:03.581Z,6.10
2022-10-05T01:27:52.063Z,6.97
2022-10-05T01:30:22.785Z,8.88
2022-10-05T01:33:03.435Z,5.10
2022-10-05T01:36:00.009Z,5.68
2022-10-05T01:38:52.945Z,9.25
2022-10-05T01:41:37.347Z,5.72
2022-10-05T01:44:04.046Z,6.15
2022-10-05T01:46:52.118Z,8.60
2022-10-05T01:49:46.021Z,6.93
2022-10-05T01:52:24.329Z,7.85
2022-10-05T01:54:56.782Z,6.93
2022-10-05T01:57:30.002Z,10.82
2022-10-05T02:00:03.474Z,9.13
2022-10-05T02:02:34.863Z,7.63
2022-10-05T02:05:10.164Z,5.75
2022-10-05T02:07:47.932Z,6.63
2022-10-05T02:10:18.912Z,9.48
2022-10-05T02:12:48.923Z,9.32
2022-10-05T02:15:20.711Z,6.30
2022-10-05T02:17:52.742Z,5.18
2022-10-05T02:22:57.344Z,5.55
2022-10-05T02:25:29.799Z,6.95
2022-10-05T02:28:27.086Z,5.43
2022-10-05T02:31:10.485Z,5.32
2022-10-05T02:33:38.202Z,6.43
2022-10-05T02:36:12.257Z,6.10
2022-10-05T02:39:13.740Z,6.10
2022-10-05T02:41:46.081Z,7.45
2022-10-05T02:44:35.632Z,7.05
2022-10-05T02:47:30.013Z,6.10
2022-10-05T02:50:33.137Z,7.03
2022-10-05T02:53:24.415Z,6.20
2022-10-05T02:56:11.174Z,6.30
2022-10-05T02:59:00.579Z,6.18
2022-10-05T03:01:55.756Z,6.68
2022-10-05T03:05:01.415Z,7.45
2022-10-05T03:07:31.864Z,7.85
2022-10-05T03:10:29.082Z,7.88
2022-10-05T03:13:14.584Z,5.03
2022-10-05T03:16:28.459Z,5.13
2022-10-05T03:19:22.201Z,5.22
2022-10-05T03:22:01.439Z,7.60
2022-10-05T03:24:49.272Z,8.55
2022-10-05T03:27:27.793Z,7.40
2022-10-05T03:30:18.798Z,5.53
2022-10-05T03:33:00.386Z,5.53
2022-10-05T03:35:36.788Z,4.95
2022-10-05T03:38:27.705Z,6.20
2022-10-05T03:41:16.616Z,8.07
2022-10-05T03:43:52.406Z,8.85
2022-10-05T03:46:48.315Z,7.03
2022-10-05T03:49:27.146Z,8.00
2022-10-05T03:52:09.559Z,7.53
2022-10-05T03:54:44.818Z,7.55
2022-10-05T03:57:20.529Z,6.32
2022-10-05T04:00:05.548Z,9.02
2022-10-05T04:03:13.707Z,7.50
2022-10-05T04:05:50.452Z,7.20
2022-10-05T04:08:48.093Z,7.43
2022-10-05T04:11:21.215Z,8.25
2022-10-05T04:14:03.047Z,6.53
2022-10-05T04:16:36.107Z,6.00
2022-10-05T04:19:15.906Z,6.68
2022-10-05T04:21:56.184Z,7.50
2022-10-05T04:24:42.326Z,6.10
2022-10-05T04:27:35.889Z,5.03
2022-10-05T04:30:08.976Z,5.25
2022-10-05T04:32:38.839Z,5.85
2022-10-05T04:35:43.059Z,5.57
2022-10-05T04:38:34.297Z,5.15
2022-10-05T04:41:25.130Z,6.10
2022-10-05T04:43:51.745Z,6.47
2022-10-05T04:47:03.342Z,5.00
2022-10-05T04:49:48.903Z,4.50
2022-10-05T04:52:24.794Z,4.40
2022-10-05T04:55:03.495Z,6.68
2022-10-05T04:57:41.602Z,6.60
2022-10-05T05:00:26.095Z,6.00
2022-10-05T05:03:04.289Z,4.97
2022-10-05T05:05:58.638Z,6.50
2022-10-05T05:08:37.155Z,5.53
2022-10-05T05:11:19.035Z,7.15
2022-10-05T05:14:04.269Z,6.93
2022-10-05T05:16:39.010Z,5.28
2022-10-05T05:20:01.701Z,4.78
2022-10-05T05:22:50.635Z,4.85
2022-10-05T05:25:44.086Z,5.15
2022-10-05T05:28:31.883Z,4.90
2022-10-05T05:31:13.086Z,4.75
2022-10-05T05:33:58.367Z,5.85
2022-10-05T05:36:31.122Z,3.63
2022-10-05T05:39:05.620Z,4.18
2022-10-05T05:42:24.299Z,5.32
2022-10-05T05:44:53.543Z,5.60
2022-10-05T05:47:31.190Z,5.90
2022-10-05T05:50:24.454Z,4.63
2022-10-05T05:53:02.555Z,5.20
2022-10-05T05:55:36.637Z,7.53
2022-10-05T05:58:21.857Z,6.45
2022-10-05T06:00:58.754Z,7.82
2022-10-05T06:03:58.295Z,8.73
2022-10-05T06:06:30.824Z,6.82
2022-10-05T06:09:03.066Z,7.10
2022-10-05T06:11:32.571Z,8.40
2022-10-05T06:14:05.095Z,9.50
2022-10-05T06:16:40.388Z,8.52
2022-10-05T06:19:16.683Z,9.15
2022-10-05T06:21:55.384Z,5.75
2022-10-05T06:24:45.882Z,6.55
2022-10-05T06:27:34.390Z,8.70
2022-10-05T06:30:15.220Z,8.20
2022-10-05T06:32:48.002Z,7.97
2022-10-05T06:35:39.577Z,6.03
2022-10-05T06:38:38.453Z,6.37
2022-10-05T06:41:23.139Z,5.80
2022-10-05T06:44:06.130Z,19.75
2022-10-05T06:46:42.766Z,19.65
2022-10-05T06:49:20.367Z,16.67
2022-10-05T06:52:05.056Z,16.08
2022-10-05T06:54:31.682Z,11.80
2022-10-05T06:57:16.627Z,10.65
2022-10-05T07:00:01.561Z,8.45
2022-10-05T07:02:45.701Z,6.50
2022-10-05T07:05:31.421Z,7.80
2022-10-05T07:08:04.164Z,8.80
2022-10-05T07:10:45.899Z,10.75
2022-10-05T07:13:27.832Z,9.23
2022-10-05T07:16:20.257Z,9.30
2022-10-05T07:21:22.343Z,6.45
2022-10-05T07:24:23.695Z,8.48
2022-10-05T07:27:22.543Z,8.07
2022-10-05T07:30:06.688Z,7.57
2022-10-05T07:32:35.640Z,5.80
2022-10-05T07:35:07.917Z,6.50
2022-10-05T07:37:55.142Z,6.65
2022-10-05T07:40:26.467Z,6.80
2022-10-05T07:43:45.241Z,9.40
2022-10-05T07:46:29.301Z,8.05
2022-10-05T07:49:03.389Z,8.18
2022-10-05T07:51:41.543Z,9.40
2022-10-05T07:54:32.904Z,10.60
2022-10-05T07:57:47.430Z,9.40
2022-10-05T08:00:20.365Z,9.40
2022-10-05T08:02:49.380Z,8.98
2022-10-05T08:05:33.651Z,6.75
2022-10-05T08:08:06.596Z,7.18
2022-10-05T08:10:44.587Z,7.70
2022-10-05T08:13:21.403Z,7.35
2022-10-05T08:15:53.954Z,8.05
2022-10-05T08:18:26.550Z,8.02
2022-10-05T08:20:58.489Z,9.18
2022-10-05T08:23:40.837Z,9.30
2022-10-05T08:26:35.074Z,7.68
2022-10-05T08:29:29.737Z,8.02
2022-10-05T08:32:01.616Z,6.85
2022-10-05T08:34:40.413Z,6.97
2022-10-05T08:37:15.784Z,7.07
2022-10-05T08:40:04.331Z,6.20
2022-10-05T08:42:55.612Z,7.38
2022-10-05T08:45:37.743Z,6.90
2022-10-05T08:48:42.126Z,5.97
2022-10-05T08:51:17.697Z,6.43
2022-10-05T08:53:47.418Z,5.85
2022-10-05T08:56:19.069Z,6.10
2022-10-05T08:59:01.661Z,5.28
2022-10-05T09:02:06.101Z,5.20
2022-10-05T09:04:58.011Z,5.55
2022-10-05T09:07:57.149Z,5.15
2022-10-05T09:10:53.201Z,4.30
2022-10-05T09:13:38.782Z,4.57
2022-10-05T09:16:30.275Z,4.40
2022-10-05T09:19:24.461Z,4.33
2022-10-05T09:22:04.981Z,4.25
2022-10-05T09:25:08.160Z,4.35
2022-10-05T09:27:39.415Z,4.10
2022-10-05T09:30:30.854Z,3.85
2022-10-05T09:33:35.053Z,4.00
2022-10-05T09:36:11.084Z,4.22
2022-10-05T09:39:13.418Z,4.32
2022-10-05T09:41:42.827Z,4.93
2022-10-05T09:44:40.470Z,4.32
2022-10-05T09:47:25.718Z,3.30
2022-10-05T09:50:16.562Z,3.38
2022-10-05T09:53:08.239Z,3.30
2022-10-05T09:56:06.321Z,3.00
2022-10-05T09:58:33.351Z,3.15
2022-10-05T10:01:09.633Z,3.15
2022-10-05T10:04:24.663Z,2.80
2022-10-05T10:07:16.406Z,2.67
2022-10-05T10:10:10.977Z,2.20
2022-10-05T10:13:13.415Z,2.30
2022-10-05T10:18:40.650Z,2.10
2022-10-05T10:21:33.220Z,2.00
2022-10-05T10:24:11.918Z,2.10
2022-10-05T10:26:55.725Z,2.38
2022-10-05T10:29:45.950Z,1.95
2022-10-05T10:32:38.479Z,2.40
2022-10-05T10:35:18.887Z,1.98
2022-10-05T10:38:03.568Z,2.20
2022-10-05T10:40:39.279Z,2.08
2022-10-05T10:43:26.653Z,1.80
2022-10-05T10:46:32.300Z,1.80
2022-10-05T10:49:15.640Z,1.77
2022-10-05T10:52:11.763Z,1.90
2022-10-05T10:54:53.389Z,1.63
2022-10-05T10:57:31.935Z,1.73
2022-10-05T11:00:03.117Z,1.80
2022-10-05T11:02:50.247Z,1.60
2022-10-05T11:06:04.676Z,1.48
2022-10-05T11:08:46.424Z,1.60
2022-10-05T11:11:47.526Z,1.73
2022-10-05T11:14:47.114Z,1.48
2022-10-05T11:17:31.638Z,1.40
2022-10-05T11:20:32.503Z,1.40
2022-10-05T11:23:22.734Z,1.48
2022-10-05T11:26:11.900Z,1.58
2022-10-05T11:28:50.638Z,1.70
2022-10-05T11:32:13.253Z,1.60
2022-10-05T11:35:19.541Z,1.40
2022-10-05T11:38:10.555Z,1.60
2022-10-05T11:41:05.457Z,1.17
2022-10-05T11:44:06.136Z,1.45
2022-10-05T11:47:00.598Z,1.30
2022-10-05T11:49:39.970Z,1.30
2022-10-05T11:52:17.454Z,1.30
2022-10-05T11:55:09.758Z,1.38
2022-10-05T11:57:47.564Z,1.50
2022-10-05T12:00:19.058Z,1.40
2022-10-05T12:03:12.386Z,1.40
2022-10-05T12:06:03.163Z,1.58
2022-10-05T12:09:00.750Z,1.65
2022-10-05T12:12:03.064Z,1.38
2022-10-05T12:15:17.556Z,1.45
2022-10-05T12:18:04.654Z,1.52
2022-10-05T12:20:53.246Z,2.55
2022-10-05T12:23:22.165Z,3.83
2022-10-05T12:25:57.624Z,2.60
2022-10-05T12:28:35.000Z,2.10
2022-10-05T12:31:35.104Z,1.65
2022-10-05T12:34:39.293Z,1.90
2022-10-05T12:37:30.764Z,1.80
2022-10-05T12:40:11.275Z,1.67
2022-10-05T12:43:22.193Z,1.60
2022-10-05T12:46:13.579Z,1.50
2022-10-05T12:49:08.316Z,1.52
2022-10-05T12:52:00.696Z,1.60
2022-10-05T12:55:04.744Z,1.48
2022-10-05T12:57:49.852Z,1.40
2022-10-05T13:00:22.749Z,1.50
2022-10-05T13:03:03.869Z,1.30
2022-10-05T13:06:26.360Z,1.25
2022-10-05T13:09:20.274Z,1.50
2022-10-05T13:11:54.947Z,1.10
2022-10-05T13:15:00.451Z,1.00
2022-10-05T13:17:37.527Z,1.30
2022-10-05T13:20:28.016Z,1.35
2022-10-05T13:23:13.740Z,1.42
2022-10-05T13:25:57.670Z,1.08
2022-10-05T13:28:40.469Z,1.20
2022-10-05T13:31:15.120Z,1.35
2022-10-05T13:33:54.515Z,1.10
2022-10-05T13:36:42.786Z,1.00
2022-10-05T13:39:27.506Z,1.20
2022-10-05T13:42:19.466Z,1.30
2022-10-05T13:45:04.397Z,1.08
2022-10-05T13:47:41.544Z,1.13
2022-10-05T13:50:37.004Z,1.45
2022-10-05T13:53:23.792Z,1.02
2022-10-05T13:56:00.648Z,1.25
2022-10-05T13:58:54.516Z,1.02
2022-10-05T14:01:41.641Z,1.27
2022-10-05T14:04:21.954Z,1.42
2022-10-05T14:06:49.388Z,1.00
2022-10-05T14:09:25.323Z,1.20
2022-10-05T14:12:03.860Z,1.00
2022-10-05T14:14:33.891Z,1.10
2022-10-05T14:17:06.072Z,1.30
2022-10-05T14:19:41.886Z,1.48
2022-10-05T14:22:22.302Z,1.40
2022-10-05T14:25:03.201Z,1.20
2022-10-05T14:27:36.364Z,1.20
2022-10-05T14:30:23.622Z,1.20
2022-10-05T14:33:00.571Z,1.30
2022-10-05T14:35:44.448Z,1.30
2022-10-05T14:38:31.867Z,1.13
2022-10-05T14:41:07.565Z,1.17
2022-10-05T14:43:34.967Z,1.42
2022-10-05T14:46:23.227Z,1.20
2022-10-05T14:49:12.560Z,1.40
2022-10-05T14:51:42.090Z,1.20
2022-10-05T14:54:38.652Z,1.42
2022-10-05T14:57:25.287Z,1.50
2022-10-05T14:59:59.923Z,1.40
2022-10-05T15:02:37.151Z,1.40
2022-10-05T15:05:09.545Z,1.20
2022-10-05T15:07:41.705Z,1.20
2022-10-05T15:10:40.851Z,1.25
2022-10-05T15:13:15.613Z,1.33
2022-10-05T15:15:54.916Z,1.35
2022-10-05T15:18:51.314Z,1.40
2022-10-05T15:21:40.505Z,1.23
2022-10-05T15:24:17.083Z,1.70
2022-10-05T15:26:50.502Z,1.30
2022-10-05T15:29:38.512Z,1.33
2022-10-05T15:32:26.463Z,1.40
2022-10-05T15:34:59.620Z,1.23
2022-10-05T15:37:31.892Z,1.38
2022-10-05T15:40:02.405Z,1.38
2022-10-05T15:42:33.590Z,1.45
2022-10-05T15:45:14.419Z,1.30
2022-10-05T15:48:02.796Z,1.97
2022-10-05T15:50:32.344Z,1.83
2022-10-05T15:53:09.617Z,2.00
2022-10-05T15:55:49.259Z,1.73
2022-10-05T15:58:41.378Z,2.00
2022-10-05T16:01:16.230Z,1.58
2022-10-05T16:04:04.348Z,1.45
2022-10-05T16:06:55.605Z,1.92
2022-10-05T16:09:46.639Z,2.20
2022-10-05T16:12:38.370Z,3.00
2022-10-05T16:18:06.310Z,3.00
2022-10-05T16:21:10.777Z,1.95
2022-10-05T16:23:43.659Z,1.70
2022-10-05T16:26:19.254Z,2.10
2022-10-05T16:29:05.203Z,3.00
2022-10-05T16:31:55.195Z,2.33
2022-10-05T16:35:00.820Z,2.33
2022-10-05T16:37:41.356Z,1.98
2022-10-05T16:40:20.236Z,2.20
2022-10-05T16:42:56.329Z,2.00
2022-10-05T16:46:02.878Z,2.20
2022-10-05T16:48:37.649Z,2.75
2022-10-05T16:51:23.215Z,4.35
2022-10-05T16:54:01.862Z,3.20
2022-10-05T16:56:37.476Z,3.90
2022-10-05T16:59:13.311Z,3.28
2022-10-05T17:02:18.608Z,5.15
2022-10-05T17:05:00.928Z,5.47
2022-10-05T17:07:46.580Z,4.00
2022-10-05T17:10:57.908Z,3.92
2022-10-05T17:14:01.564Z,3.00
2022-10-05T17:17:03.836Z,3.05
2022-10-05T17:19:46.584Z,2.85
2022-10-05T17:22:26.886Z,3.08
2022-10-05T17:25:04.688Z,3.60
2022-10-05T17:27:33.198Z,3.83
2022-10-05T17:30:23.411Z,4.28
2022-10-05T17:32:57.885Z,4.20
2022-10-05T17:36:02.893Z,3.97
2022-10-05T17:38:35.391Z,3.60
2022-10-05T17:41:17.493Z,4.90
2022-10-05T17:44:16.172Z,8.80
2022-10-05T17:46:45.598Z,5.80
2022-10-05T17:49:21.234Z,5.28
2022-10-05T17:52:06.736Z,5.28
2022-10-05T17:55:03.817Z,5.95
2022-10-05T17:57:31.898Z,5.65
2022-10-05T18:00:01.978Z,5.78
2022-10-05T18:02:37.011Z,5.95
2022-10-05T18:05:06.679Z,5.45
2022-10-05T18:07:38.622Z,5.10
2022-10-05T18:10:16.930Z,4.53
2022-10-05T18:12:58.658Z,4.55
2022-10-05T18:15:25.209Z,4.47
2022-10-05T18:18:00.885Z,4.40
2022-10-05T18:20:32.952Z,4.47
2022-10-05T18:23:09.536Z,4.35
2022-10-05T18:25:44.831Z,4.03
2022-10-05T18:28:41.396Z,4.28
2022-10-05T18:31:15.838Z,5.55
2022-10-05T18:34:31.483Z,5.13
2022-10-05T18:37:36.335Z,4.55
2022-10-05T18:40:26.456Z,4.18
2022-10-05T18:43:14.691Z,4.35
2022-10-05T18:46:12.953Z,4.30
2022-10-05T18:49:05.691Z,4.00
2022-10-05T18:51:41.228Z,4.97
2022-10-05T18:54:40.670Z,3.97
2022-10-05T18:57:31.477Z,4.00
2022-10-05T19:00:22.269Z,4.10
2022-10-05T19:02:51.733Z,3.63
2022-10-05T19:05:48.324Z,3.75
2022-10-05T19:08:27.629Z,4.05
2022-10-05T19:11:07.006Z,3.63
2022-10-05T19:13:57.779Z,3.50
2022-10-05T19:17:00.552Z,3.75
2022-10-05T19:19:32.479Z,3.25
2022-10-05T19:22:16.702Z,3.53
2022-10-05T19:24:54.298Z,3.88
2022-10-05T19:28:10.950Z,3.50
2022-10-05T19:31:09.640Z,3.55
2022-10-05T19:34:06.175Z,3.15
2022-10-05T19:36:39.524Z,3.28
2022-10-05T19:39:11.042Z,3.08
2022-10-05T19:41:59.143Z,3.33
2022-10-05T19:44:34.077Z,3.67
2022-10-05T19:47:06.116Z,3.08
2022-10-05T19:49:51.497Z,3.03
2022-10-05T19:52:22.782Z,2.83
2022-10-05T19:55:22.208Z,2.63
2022-10-05T19:57:51.340Z,2.65
2022-10-05T20:00:26.563Z,2.60
2022-10-05T20:03:19.445Z,2.40
2022-10-05T20:05:46.230Z,2.65
2022-10-05T20:08:21.329Z,2.22
2022-10-05T20:11:08.468Z,2.25
2022-10-05T20:13:35.813Z,2.60
2022-10-05T20:16:45.378Z,2.53
2022-10-05T20:19:52.185Z,2.60
2022-10-05T20:22:46.230Z,2.42
2022-10-05T20:25:18.918Z,2.50
2022-10-05T20:27:55.417Z,2.33
2022-10-05T20:30:27.889Z,2.33
2022-10-05T20:32:59.584Z,2.70
2022-10-05T20:38:00.200Z,2.47
2022-10-05T20:40:29.119Z,2.35
2022-10-05T20:42:57.269Z,2.30
2022-10-05T20:45:24.344Z,1.92
2022-10-05T20:47:51.092Z,2.25
2022-10-05T20:50:17.971Z,2.25
2022-10-05T20:52:44.645Z,3.17
2022-10-05T20:55:12.061Z,2.70
2022-10-05T20:57:41.822Z,2.28
2022-10-05T21:00:11.049Z,2.72
2022-10-05T21:02:39.367Z,2.10
2022-10-05T21:05:07.554Z,2.40
2022-10-05T21:07:34.418Z,2.40
2022-10-05T21:10:03.268Z,2.10
2022-10-05T21:12:30.143Z,2.47
2022-10-05T21:14:56.807Z,2.70
2022-10-05T21:17:23.440Z,2.38
2022-10-05T21:19:52.523Z,2.45
2022-10-05T21:22:19.105Z,2.40
2022-10-05T21:24:46.146Z,1.88
2022-10-05T21:27:12.761Z,1.88
2022-10-05T21:29:41.133Z,1.98
2022-10-05T21:32:11.267Z,2.90
2022-10-05T21:34:39.535Z,2.92
2022-10-05T21:37:06.656Z,2.13
2022-10-05T21:39:34.556Z,2.53
2022-10-05T21:42:01.521Z,3.03
2022-10-05T21:44:28.188Z,2.92
2022-10-05T21:46:55.756Z,2.55
2022-10-05T21:49:22.644Z,2.42
2022-10-05T21:51:49.359Z,2.22
2022-10-05T21:54:19.331Z,2.25
2022-10-05T21:56:52.494Z,2.50
2022-10-05T21:59:22.474Z,3.03
2022-10-05T22:01:49.154Z,2.40
2022-10-05T22:04:15.912Z,2.30
2022-10-05T22:06:42.590Z,3.00
2022-10-05T22:09:09.449Z,2.25
2022-10-05T22:11:36.319Z,2.83
2022-10-05T22:14:03.089Z,2.03
2022-10-05T22:16:32.651Z,1.90
2022-10-05T22:19:05.547Z,2.05
2022-10-05T22:21:37.705Z,2.13
2022-10-05T22:24:07.464Z,3.05
2022-10-05T22:26:35.106Z,2.80
2022-10-05T22:29:03.376Z,2.20
2022-10-05T22:31:30.128Z,2.25
2022-10-05T22:33:56.779Z,1.92
2022-10-05T22:36:23.643Z,1.63
2022-10-05T22:38:50.329Z,2.03
2022-10-05T22:41:18.374Z,1.90
2022-10-05T22:43:48.622Z,2.40
2022-10-05T22:46:15.433Z,1.98
2022-10-05T22:48:42.092Z,2.35
2022-10-05T22:51:09.126Z,2.10
2022-10-05T22:53:36.318Z,2.10
2022-10-05T22:56:13.461Z,1.77
2022-10-05T22:58:41.399Z,2.25
2022-10-05T23:01:11.859Z,2.10
2022-10-05T23:03:38.879Z,1.75
2022-10-05T23:06:11.247Z,1.95
2022-10-05T23:08:38.822Z,1.98
2022-10-05T23:11:12.187Z,2.05
2022-10-05T23:13:39.536Z,1.92
2022-10-05T23:16:17.405Z,1.88
2022-10-05T23:18:44.925Z,2.15
2022-10-05T23:21:11.748Z,1.90
2022-10-05T23:23:40.769Z,1.85
2022-10-05T23:26:10.619Z,1.90
2022-10-05T23:28:39.681Z,1.65
2022-10-05T23:31:08.784Z,1.88
2022-10-05T23:33:35.556Z,2.05
2022-10-05T23:36:17.906Z,1.75
2022-10-05T23:38:47.848Z,1.75
2022-10-05T23:41:15.931Z,2.00
2022-10-05T23:43:43.204Z,1.67
2022-10-05T23:46:10.456Z,2.35
2022-10-05T23:48:37.985Z,2.05
2022-10-05T23:51:10.219Z,2.40
2022-10-05T23:53:37.211Z,2.20
2022-10-05T23:56:04.324Z,1.70
2022-10-05T23:58:31.465Z,1.17
